sensor_id;sensor_type;location;lat;lon;timestamp;P1;durP1;ratioP1;P2;durP2;ratioP2
35150;SDS011;55720;51.972;4.624;2023-04-30T00:02:06;27.73;;;14.23;;
35150;SDS011;55720;51.972;4.624;2023-04-30T00:04:32;30.80;;;14.55;;
35150;SDS011;55720;51.972;4.624;2023-04-30T00:06:58;29.88;;;14.20;;
35150;SDS011;55720;51.972;4.624;2023-04-30T00:09:23;26.08;;;14.02;;
35150;SDS011;55720;51.972;4.624;2023-04-30T00:11:48;24.77;;;13.65;;
35150;SDS011;55720;51.972;4.624;2023-04-30T00:14:14;23.60;;;13.38;;
35150;SDS011;55720;51.972;4.624;2023-04-30T00:16:39;28.58;;;14.63;;
35150;SDS011;55720;51.972;4.624;2023-04-30T00:19:05;27.92;;;13.35;;
35150;SDS011;55720;51.972;4.624;2023-04-30T00:21:30;28.98;;;14.75;;
35150;SDS011;55720;51.972;4.624;2023-04-30T00:23:56;26.02;;;14.07;;
35150;SDS011;55720;51.972;4.624;2023-04-30T00:26:24;26.83;;;13.82;;
35150;SDS011;55720;51.972;4.624;2023-04-30T00:28:49;30.88;;;14.52;;
35150;SDS011;55720;51.972;4.624;2023-04-30T00:31:17;25.05;;;13.40;;
35150;SDS011;55720;51.972;4.624;2023-04-30T00:33:43;29.90;;;15.35;;
35150;SDS011;55720;51.972;4.624;2023-04-30T00:36:08;31.42;;;13.23;;
35150;SDS011;55720;51.972;4.624;2023-04-30T00:38:34;30.00;;;15.65;;
35150;SDS011;55720;51.972;4.624;2023-04-30T00:40:59;26.50;;;14.52;;
35150;SDS011;55720;51.972;4.624;2023-04-30T00:43:25;30.25;;;15.27;;
35150;SDS011;55720;51.972;4.624;2023-04-30T00:45:50;31.02;;;15.40;;
35150;SDS011;55720;51.972;4.624;2023-04-30T00:48:15;35.83;;;15.60;;
35150;SDS011;55720;51.972;4.624;2023-04-30T00:50:41;37.65;;;15.82;;
35150;SDS011;55720;51.972;4.624;2023-04-30T00:53:08;33.15;;;15.43;;
35150;SDS011;55720;51.972;4.624;2023-04-30T00:55:34;30.30;;;16.67;;
35150;SDS011;55720;51.972;4.624;2023-04-30T00:58:00;35.50;;;15.93;;
35150;SDS011;55720;51.972;4.624;2023-04-30T01:00:26;32.67;;;16.27;;
35150;SDS011;55720;51.972;4.624;2023-04-30T01:02:51;32.22;;;16.13;;
35150;SDS011;55720;51.972;4.624;2023-04-30T01:05:17;33.63;;;16.42;;
35150;SDS011;55720;51.972;4.624;2023-04-30T01:07:43;31.83;;;15.70;;
35150;SDS011;55720;51.972;4.624;2023-04-30T01:10:13;30.02;;;15.13;;
35150;SDS011;55720;51.972;4.624;2023-04-30T01:12:46;32.03;;;15.52;;
35150;SDS011;55720;51.972;4.624;2023-04-30T01:15:34;29.88;;;14.88;;
35150;SDS011;55720;51.972;4.624;2023-04-30T01:18:12;25.27;;;13.55;;
35150;SDS011;55720;51.972;4.624;2023-04-30T01:20:52;29.92;;;14.77;;
35150;SDS011;55720;51.972;4.624;2023-04-30T01:23:29;30.05;;;15.48;;
35150;SDS011;55720;51.972;4.624;2023-04-30T01:28:37;28.98;;;13.65;;
35150;SDS011;55720;51.972;4.624;2023-04-30T01:31:14;25.45;;;14.35;;
35150;SDS011;55720;51.972;4.624;2023-04-30T01:33:42;28.33;;;14.90;;
35150;SDS011;55720;51.972;4.624;2023-04-30T01:39:01;24.73;;;14.00;;
35150;SDS011;55720;51.972;4.624;2023-04-30T01:41:40;24.83;;;13.02;;
35150;SDS011;55720;51.972;4.624;2023-04-30T01:52:51;30.73;;;14.23;;
35150;SDS011;55720;51.972;4.624;2023-04-30T01:58:00;28.83;;;14.32;;
35150;SDS011;55720;51.972;4.624;2023-04-30T02:00:29;30.10;;;15.10;;
35150;SDS011;55720;51.972;4.624;2023-04-30T02:02:55;37.55;;;16.52;;
35150;SDS011;55720;51.972;4.624;2023-04-30T02:05:21;31.88;;;16.30;;
35150;SDS011;55720;51.972;4.624;2023-04-30T02:07:47;32.25;;;15.73;;
35150;SDS011;55720;51.972;4.624;2023-04-30T02:10:15;41.15;;;17.77;;
35150;SDS011;55720;51.972;4.624;2023-04-30T02:12:41;43.13;;;17.75;;
35150;SDS011;55720;51.972;4.624;2023-04-30T02:15:07;41.88;;;18.60;;
35150;SDS011;55720;51.972;4.624;2023-04-30T02:17:33;37.45;;;18.08;;
35150;SDS011;55720;51.972;4.624;2023-04-30T02:19:59;40.13;;;18.08;;
35150;SDS011;55720;51.972;4.624;2023-04-30T02:22:24;42.58;;;18.15;;
35150;SDS011;55720;51.972;4.624;2023-04-30T02:24:49;42.83;;;18.40;;
35150;SDS011;55720;51.972;4.624;2023-04-30T02:27:15;36.83;;;17.98;;
35150;SDS011;55720;51.972;4.624;2023-04-30T02:29:41;36.25;;;17.20;;
35150;SDS011;55720;51.972;4.624;2023-04-30T02:32:07;43.47;;;19.15;;
35150;SDS011;55720;51.972;4.624;2023-04-30T02:34:33;37.63;;;17.77;;
35150;SDS011;55720;51.972;4.624;2023-04-30T02:36:58;45.05;;;19.90;;
35150;SDS011;55720;51.972;4.624;2023-04-30T02:39:23;44.70;;;20.20;;
35150;SDS011;55720;51.972;4.624;2023-04-30T02:41:49;46.50;;;19.98;;
35150;SDS011;55720;51.972;4.624;2023-04-30T02:44:14;47.28;;;20.30;;
35150;SDS011;55720;51.972;4.624;2023-04-30T02:46:40;43.65;;;20.50;;
35150;SDS011;55720;51.972;4.624;2023-04-30T02:49:05;45.45;;;20.02;;
35150;SDS011;55720;51.972;4.624;2023-04-30T02:51:31;46.00;;;20.90;;
35150;SDS011;55720;51.972;4.624;2023-04-30T02:53:56;38.33;;;19.52;;
35150;SDS011;55720;51.972;4.624;2023-04-30T02:56:22;46.33;;;20.65;;
35150;SDS011;55720;51.972;4.624;2023-04-30T02:58:47;52.05;;;20.85;;
35150;SDS011;55720;51.972;4.624;2023-04-30T03:01:13;42.10;;;19.98;;
35150;SDS011;55720;51.972;4.624;2023-04-30T03:03:39;46.05;;;19.60;;
35150;SDS011;55720;51.972;4.624;2023-04-30T03:06:05;43.00;;;19.90;;
35150;SDS011;55720;51.972;4.624;2023-04-30T03:08:30;45.00;;;19.38;;
35150;SDS011;55720;51.972;4.624;2023-04-30T03:10:56;36.55;;;19.02;;
35150;SDS011;55720;51.972;4.624;2023-04-30T03:13:21;44.60;;;18.35;;
35150;SDS011;55720;51.972;4.624;2023-04-30T03:15:49;42.35;;;18.60;;
35150;SDS011;55720;51.972;4.624;2023-04-30T03:18:24;37.40;;;18.50;;
35150;SDS011;55720;51.972;4.624;2023-04-30T03:20:50;37.90;;;18.48;;
35150;SDS011;55720;51.972;4.624;2023-04-30T03:23:15;44.92;;;19.00;;
35150;SDS011;55720;51.972;4.624;2023-04-30T03:25:40;41.55;;;19.73;;
35150;SDS011;55720;51.972;4.624;2023-04-30T03:28:06;36.22;;;17.70;;
35150;SDS011;55720;51.972;4.624;2023-04-30T03:30:31;32.33;;;17.80;;
35150;SDS011;55720;51.972;4.624;2023-04-30T03:32:56;36.80;;;17.30;;
35150;SDS011;55720;51.972;4.624;2023-04-30T03:35:22;36.50;;;17.10;;
35150;SDS011;55720;51.972;4.624;2023-04-30T03:37:47;33.00;;;16.85;;
35150;SDS011;55720;51.972;4.624;2023-04-30T03:40:12;36.38;;;17.42;;
35150;SDS011;55720;51.972;4.624;2023-04-30T03:42:38;33.78;;;17.63;;
35150;SDS011;55720;51.972;4.624;2023-04-30T03:45:03;40.97;;;18.17;;
35150;SDS011;55720;51.972;4.624;2023-04-30T03:47:29;39.10;;;17.65;;
35150;SDS011;55720;51.972;4.624;2023-04-30T03:49:54;38.15;;;17.63;;
35150;SDS011;55720;51.972;4.624;2023-04-30T03:52:20;37.25;;;18.33;;
35150;SDS011;55720;51.972;4.624;2023-04-30T03:54:46;35.67;;;17.58;;
35150;SDS011;55720;51.972;4.624;2023-04-30T03:57:11;36.00;;;17.33;;
35150;SDS011;55720;51.972;4.624;2023-04-30T03:59:38;38.40;;;17.40;;
35150;SDS011;55720;51.972;4.624;2023-04-30T04:02:04;36.47;;;17.60;;
35150;SDS011;55720;51.972;4.624;2023-04-30T04:04:30;35.60;;;17.70;;
35150;SDS011;55720;51.972;4.624;2023-04-30T04:06:55;35.65;;;18.08;;
35150;SDS011;55720;51.972;4.624;2023-04-30T04:09:21;35.50;;;17.38;;
35150;SDS011;55720;51.972;4.624;2023-04-30T04:11:46;39.95;;;17.83;;
35150;SDS011;55720;51.972;4.624;2023-04-30T04:14:12;34.17;;;17.27;;
35150;SDS011;55720;51.972;4.624;2023-04-30T04:16:38;33.50;;;17.02;;
35150;SDS011;55720;51.972;4.624;2023-04-30T04:19:03;39.08;;;16.38;;
35150;SDS011;55720;51.972;4.624;2023-04-30T04:21:28;32.45;;;16.27;;
35150;SDS011;55720;51.972;4.624;2023-04-30T04:23:55;35.25;;;16.65;;
35150;SDS011;55720;51.972;4.624;2023-04-30T04:26:20;35.85;;;16.50;;
35150;SDS011;55720;51.972;4.624;2023-04-30T04:28:48;43.90;;;17.95;;
35150;SDS011;55720;51.972;4.624;2023-04-30T04:31:14;41.83;;;18.23;;
35150;SDS011;55720;51.972;4.624;2023-04-30T04:33:39;34.42;;;17.67;;
35150;SDS011;55720;51.972;4.624;2023-04-30T04:36:05;35.92;;;18.42;;
35150;SDS011;55720;51.972;4.624;2023-04-30T04:38:30;40.35;;;18.60;;
35150;SDS011;55720;51.972;4.624;2023-04-30T04:40:56;40.45;;;18.85;;
35150;SDS011;55720;51.972;4.624;2023-04-30T04:43:21;36.70;;;17.90;;
35150;SDS011;55720;51.972;4.624;2023-04-30T04:45:47;37.28;;;18.67;;
35150;SDS011;55720;51.972;4.624;2023-04-30T04:48:12;41.53;;;18.67;;
35150;SDS011;55720;51.972;4.624;2023-04-30T04:50:38;38.08;;;19.90;;
35150;SDS011;55720;51.972;4.624;2023-04-30T04:53:03;37.40;;;18.05;;
35150;SDS011;55720;51.972;4.624;2023-04-30T04:55:29;37.33;;;18.50;;
35150;SDS011;55720;51.972;4.624;2023-04-30T04:57:55;40.22;;;18.40;;
35150;SDS011;55720;51.972;4.624;2023-04-30T05:00:20;42.10;;;19.85;;
35150;SDS011;55720;51.972;4.624;2023-04-30T05:02:47;37.05;;;18.23;;
35150;SDS011;55720;51.972;4.624;2023-04-30T05:05:12;39.42;;;18.20;;
35150;SDS011;55720;51.972;4.624;2023-04-30T05:07:37;31.25;;;17.70;;
35150;SDS011;55720;51.972;4.624;2023-04-30T05:10:03;32.72;;;16.70;;
35150;SDS011;55720;51.972;4.624;2023-04-30T05:12:29;33.38;;;17.20;;
35150;SDS011;55720;51.972;4.624;2023-04-30T05:14:55;29.67;;;15.80;;
35150;SDS011;55720;51.972;4.624;2023-04-30T05:17:20;27.83;;;15.65;;
35150;SDS011;55720;51.972;4.624;2023-04-30T05:19:45;27.25;;;14.23;;
35150;SDS011;55720;51.972;4.624;2023-04-30T05:22:12;26.30;;;13.93;;
35150;SDS011;55720;51.972;4.624;2023-04-30T05:24:38;24.13;;;13.77;;
35150;SDS011;55720;51.972;4.624;2023-04-30T05:27:04;23.90;;;12.63;;
35150;SDS011;55720;51.972;4.624;2023-04-30T05:29:29;24.20;;;12.10;;
35150;SDS011;55720;51.972;4.624;2023-04-30T05:31:55;21.52;;;12.20;;
35150;SDS011;55720;51.972;4.624;2023-04-30T05:34:21;18.42;;;11.55;;
35150;SDS011;55720;51.972;4.624;2023-04-30T05:36:46;19.33;;;11.18;;
35150;SDS011;55720;51.972;4.624;2023-04-30T05:39:11;17.58;;;9.75;;
35150;SDS011;55720;51.972;4.624;2023-04-30T05:41:37;10.57;;;7.80;;
35150;SDS011;55720;51.972;4.624;2023-04-30T05:44:02;10.77;;;7.07;;
35150;SDS011;55720;51.972;4.624;2023-04-30T05:46:28;7.68;;;6.13;;
35150;SDS011;55720;51.972;4.624;2023-04-30T05:48:54;6.82;;;6.20;;
35150;SDS011;55720;51.972;4.624;2023-04-30T05:51:19;9.00;;;6.70;;
35150;SDS011;55720;51.972;4.624;2023-04-30T05:53:45;7.47;;;6.10;;
35150;SDS011;55720;51.972;4.624;2023-04-30T05:56:10;8.45;;;6.65;;
35150;SDS011;55720;51.972;4.624;2023-04-30T05:58:36;7.22;;;5.95;;
35150;SDS011;55720;51.972;4.624;2023-04-30T06:01:02;8.52;;;6.20;;
35150;SDS011;55720;51.972;4.624;2023-04-30T06:03:28;8.05;;;6.40;;
35150;SDS011;55720;51.972;4.624;2023-04-30T06:05:53;8.32;;;6.65;;
35150;SDS011;55720;51.972;4.624;2023-04-30T06:08:18;12.07;;;6.88;;
35150;SDS011;55720;51.972;4.624;2023-04-30T06:10:44;8.90;;;6.60;;
35150;SDS011;55720;51.972;4.624;2023-04-30T06:13:09;10.18;;;7.07;;
35150;SDS011;55720;51.972;4.624;2023-04-30T06:15:35;10.85;;;7.05;;
35150;SDS011;55720;51.972;4.624;2023-04-30T06:18:00;10.50;;;6.50;;
35150;SDS011;55720;51.972;4.624;2023-04-30T06:20:25;8.38;;;6.68;;
35150;SDS011;55720;51.972;4.624;2023-04-30T06:22:51;10.52;;;6.80;;
35150;SDS011;55720;51.972;4.624;2023-04-30T06:25:17;9.43;;;7.22;;
35150;SDS011;55720;51.972;4.624;2023-04-30T06:27:42;10.13;;;6.95;;
35150;SDS011;55720;51.972;4.624;2023-04-30T06:30:08;11.25;;;7.05;;
35150;SDS011;55720;51.972;4.624;2023-04-30T06:32:33;10.38;;;6.80;;
35150;SDS011;55720;51.972;4.624;2023-04-30T06:34:59;9.23;;;6.70;;
35150;SDS011;55720;51.972;4.624;2023-04-30T06:37:25;10.77;;;6.90;;
35150;SDS011;55720;51.972;4.624;2023-04-30T06:39:50;11.70;;;6.60;;
35150;SDS011;55720;51.972;4.624;2023-04-30T06:42:16;9.77;;;7.10;;
35150;SDS011;55720;51.972;4.624;2023-04-30T06:44:41;8.95;;;6.32;;
35150;SDS011;55720;51.972;4.624;2023-04-30T06:47:06;9.15;;;5.78;;
35150;SDS011;55720;51.972;4.624;2023-04-30T06:49:32;12.32;;;6.70;;
35150;SDS011;55720;51.972;4.624;2023-04-30T06:51:57;8.30;;;5.63;;
35150;SDS011;55720;51.972;4.624;2023-04-30T06:54:23;5.28;;;4.63;;
35150;SDS011;55720;51.972;4.624;2023-04-30T06:56:50;9.57;;;5.10;;
35150;SDS011;55720;51.972;4.624;2023-04-30T06:59:16;9.25;;;5.13;;
35150;SDS011;55720;51.972;4.624;2023-04-30T07:01:42;5.13;;;4.68;;
35150;SDS011;55720;51.972;4.624;2023-04-30T07:04:07;5.28;;;4.88;;
35150;SDS011;55720;51.972;4.624;2023-04-30T07:06:32;6.00;;;4.38;;
35150;SDS011;55720;51.972;4.624;2023-04-30T07:08:58;6.72;;;4.72;;
35150;SDS011;55720;51.972;4.624;2023-04-30T07:11:23;7.10;;;5.30;;
35150;SDS011;55720;51.972;4.624;2023-04-30T07:13:48;6.47;;;5.88;;
35150;SDS011;55720;51.972;4.624;2023-04-30T07:16:14;5.32;;;4.60;;
35150;SDS011;55720;51.972;4.624;2023-04-30T07:18:41;5.05;;;4.57;;
35150;SDS011;55720;51.972;4.624;2023-04-30T07:21:06;5.82;;;4.57;;
35150;SDS011;55720;51.972;4.624;2023-04-30T07:23:32;4.72;;;4.22;;
35150;SDS011;55720;51.972;4.624;2023-04-30T07:25:58;5.55;;;4.38;;
35150;SDS011;55720;51.972;4.624;2023-04-30T07:28:24;6.82;;;5.20;;
35150;SDS011;55720;51.972;4.624;2023-04-30T07:30:50;5.57;;;4.30;;
35150;SDS011;55720;51.972;4.624;2023-04-30T07:33:15;6.40;;;4.90;;
35150;SDS011;55720;51.972;4.624;2023-04-30T07:35:40;5.10;;;4.70;;
35150;SDS011;55720;51.972;4.624;2023-04-30T07:38:06;5.40;;;4.90;;
35150;SDS011;55720;51.972;4.624;2023-04-30T07:40:32;8.02;;;5.15;;
35150;SDS011;55720;51.972;4.624;2023-04-30T07:42:57;5.85;;;5.35;;
35150;SDS011;55720;51.972;4.624;2023-04-30T07:45:23;5.68;;;4.95;;
35150;SDS011;55720;51.972;4.624;2023-04-30T07:47:48;7.40;;;4.85;;
35150;SDS011;55720;51.972;4.624;2023-04-30T07:50:14;8.43;;;5.60;;
35150;SDS011;55720;51.972;4.624;2023-04-30T07:52:40;7.53;;;4.75;;
35150;SDS011;55720;51.972;4.624;2023-04-30T07:55:06;5.63;;;4.70;;
35150;SDS011;55720;51.972;4.624;2023-04-30T07:57:32;6.07;;;5.00;;
35150;SDS011;55720;51.972;4.624;2023-04-30T07:59:58;6.20;;;5.55;;
35150;SDS011;55720;51.972;4.624;2023-04-30T08:02:23;5.85;;;5.25;;
35150;SDS011;55720;51.972;4.624;2023-04-30T08:04:49;5.82;;;5.25;;
35150;SDS011;55720;51.972;4.624;2023-04-30T08:07:14;7.30;;;4.93;;
35150;SDS011;55720;51.972;4.624;2023-04-30T08:09:40;5.60;;;5.10;;
35150;SDS011;55720;51.972;4.624;2023-04-30T08:12:07;6.95;;;4.82;;
35150;SDS011;55720;51.972;4.624;2023-04-30T08:14:33;5.57;;;5.07;;
35150;SDS011;55720;51.972;4.624;2023-04-30T08:16:58;6.28;;;4.68;;
35150;SDS011;55720;51.972;4.624;2023-04-30T08:19:24;6.85;;;5.10;;
35150;SDS011;55720;51.972;4.624;2023-04-30T08:21:50;6.40;;;5.25;;
35150;SDS011;55720;51.972;4.624;2023-04-30T08:24:16;6.68;;;5.25;;
35150;SDS011;55720;51.972;4.624;2023-04-30T08:26:41;5.07;;;4.68;;
35150;SDS011;55720;51.972;4.624;2023-04-30T08:29:06;5.60;;;5.10;;
35150;SDS011;55720;51.972;4.624;2023-04-30T08:31:35;5.60;;;5.10;;
35150;SDS011;55720;51.972;4.624;2023-04-30T08:34:01;5.20;;;4.75;;
35150;SDS011;55720;51.972;4.624;2023-04-30T08:36:26;5.00;;;4.60;;
35150;SDS011;55720;51.972;4.624;2023-04-30T08:38:52;7.28;;;4.63;;
35150;SDS011;55720;51.972;4.624;2023-04-30T08:41:17;5.10;;;4.70;;
35150;SDS011;55720;51.972;4.624;2023-04-30T08:43:46;5.35;;;4.85;;
35150;SDS011;55720;51.972;4.624;2023-04-30T08:46:16;5.78;;;5.28;;
35150;SDS011;55720;51.972;4.624;2023-04-30T08:48:42;5.75;;;5.00;;
35150;SDS011;55720;51.972;4.624;2023-04-30T08:51:08;5.90;;;5.40;;
35150;SDS011;55720;51.972;4.624;2023-04-30T08:53:34;6.40;;;5.45;;
35150;SDS011;55720;51.972;4.624;2023-04-30T08:56:02;6.45;;;5.30;;
35150;SDS011;55720;51.972;4.624;2023-04-30T08:58:28;6.07;;;4.90;;
35150;SDS011;55720;51.972;4.624;2023-04-30T09:00:53;5.65;;;5.05;;
35150;SDS011;55720;51.972;4.624;2023-04-30T09:03:19;7.28;;;5.63;;
35150;SDS011;55720;51.972;4.624;2023-04-30T09:05:46;5.38;;;4.75;;
35150;SDS011;55720;51.972;4.624;2023-04-30T09:08:16;5.50;;;4.88;;
35150;SDS011;55720;51.972;4.624;2023-04-30T09:10:43;6.47;;;5.47;;
35150;SDS011;55720;51.972;4.624;2023-04-30T09:13:09;5.70;;;4.95;;
35150;SDS011;55720;51.972;4.624;2023-04-30T09:15:36;5.75;;;5.25;;
35150;SDS011;55720;51.972;4.624;2023-04-30T09:18:15;7.10;;;5.80;;
35150;SDS011;55720;51.972;4.624;2023-04-30T09:20:58;4.97;;;4.47;;
35150;SDS011;55720;51.972;4.624;2023-04-30T09:23:28;5.35;;;4.53;;
35150;SDS011;55720;51.972;4.624;2023-04-30T09:25:54;6.75;;;5.40;;
35150;SDS011;55720;51.972;4.624;2023-04-30T09:28:20;6.60;;;5.38;;
35150;SDS011;55720;51.972;4.624;2023-04-30T09:30:51;5.18;;;4.75;;
35150;SDS011;55720;51.972;4.624;2023-04-30T09:33:17;5.38;;;4.97;;
35150;SDS011;55720;51.972;4.624;2023-04-30T09:35:43;5.75;;;5.25;;
35150;SDS011;55720;51.972;4.624;2023-04-30T09:38:28;5.18;;;4.70;;
35150;SDS011;55720;51.972;4.624;2023-04-30T09:40:56;7.05;;;5.28;;
35150;SDS011;55720;51.972;4.624;2023-04-30T09:43:22;8.02;;;5.57;;
35150;SDS011;55720;51.972;4.624;2023-04-30T09:45:51;6.30;;;5.70;;
35150;SDS011;55720;51.972;4.624;2023-04-30T09:48:20;7.32;;;5.50;;
35150;SDS011;55720;51.972;4.624;2023-04-30T09:53:13;7.25;;;5.70;;
35150;SDS011;55720;51.972;4.624;2023-04-30T09:55:41;6.28;;;5.55;;
35150;SDS011;55720;51.972;4.624;2023-04-30T09:58:11;5.93;;;5.43;;
35150;SDS011;55720;51.972;4.624;2023-04-30T10:00:37;5.85;;;5.35;;
35150;SDS011;55720;51.972;4.624;2023-04-30T10:03:09;8.15;;;5.65;;
35150;SDS011;55720;51.972;4.624;2023-04-30T10:05:38;5.65;;;5.00;;
35150;SDS011;55720;51.972;4.624;2023-04-30T10:08:07;6.38;;;4.70;;
35150;SDS011;55720;51.972;4.624;2023-04-30T10:10:37;6.22;;;5.43;;
35150;SDS011;55720;51.972;4.624;2023-04-30T10:13:07;6.87;;;4.67;;
35150;SDS011;55720;51.972;4.624;2023-04-30T10:15:39;5.40;;;4.90;;
35150;SDS011;55720;51.972;4.624;2023-04-30T10:18:12;5.47;;;4.88;;
35150;SDS011;55720;51.972;4.624;2023-04-30T10:20:43;6.05;;;5.43;;
35150;SDS011;55720;51.972;4.624;2023-04-30T10:23:11;6.20;;;5.60;;
35150;SDS011;55720;51.972;4.624;2023-04-30T10:25:37;6.07;;;5.43;;
35150;SDS011;55720;51.972;4.624;2023-04-30T10:28:05;10.00;;;5.45;;
35150;SDS011;55720;51.972;4.624;2023-04-30T10:30:32;7.90;;;6.15;;
35150;SDS011;55720;51.972;4.624;2023-04-30T10:38:27;4.72;;;4.32;;
35150;SDS011;55720;51.972;4.624;2023-04-30T10:40:58;4.93;;;4.38;;
35150;SDS011;55720;51.972;4.624;2023-04-30T10:43:25;4.82;;;4.05;;
35150;SDS011;55720;51.972;4.624;2023-04-30T10:45:51;4.05;;;3.75;;
35150;SDS011;55720;51.972;4.624;2023-04-30T10:48:17;2.80;;;2.60;;
35150;SDS011;55720;51.972;4.624;2023-04-30T10:50:50;3.33;;;3.13;;
35150;SDS011;55720;51.972;4.624;2023-04-30T10:53:17;5.47;;;3.67;;
35150;SDS011;55720;51.972;4.624;2023-04-30T10:55:47;4.28;;;3.80;;
35150;SDS011;55720;51.972;4.624;2023-04-30T10:58:28;3.65;;;2.97;;
35150;SDS011;55720;51.972;4.624;2023-04-30T11:01:05;4.45;;;4.03;;
35150;SDS011;55720;51.972;4.624;2023-04-30T11:03:33;4.18;;;3.85;;
35150;SDS011;55720;51.972;4.624;2023-04-30T11:06:00;4.95;;;4.55;;
35150;SDS011;55720;51.972;4.624;2023-04-30T11:08:32;5.88;;;5.00;;
35150;SDS011;55720;51.972;4.624;2023-04-30T11:11:01;4.85;;;4.45;;
35150;SDS011;55720;51.972;4.624;2023-04-30T11:13:28;5.40;;;4.93;;
35150;SDS011;55720;51.972;4.624;2023-04-30T11:16:03;4.32;;;3.92;;
35150;SDS011;55720;51.972;4.624;2023-04-30T11:18:29;3.80;;;3.58;;
35150;SDS011;55720;51.972;4.624;2023-04-30T11:20:55;5.80;;;4.75;;
35150;SDS011;55720;51.972;4.624;2023-04-30T11:23:22;5.18;;;4.68;;
35150;SDS011;55720;51.972;4.624;2023-04-30T11:25:52;5.15;;;4.75;;
35150;SDS011;55720;51.972;4.624;2023-04-30T11:28:22;4.82;;;4.43;;
35150;SDS011;55720;51.972;4.624;2023-04-30T11:30:58;4.13;;;3.83;;
35150;SDS011;55720;51.972;4.624;2023-04-30T11:33:28;5.05;;;4.65;;
35150;SDS011;55720;51.972;4.624;2023-04-30T11:35:55;4.55;;;4.15;;
35150;SDS011;55720;51.972;4.624;2023-04-30T11:38:25;5.38;;;4.88;;
35150;SDS011;55720;51.972;4.624;2023-04-30T11:43:25;5.63;;;4.10;;
35150;SDS011;55720;51.972;4.624;2023-04-30T11:46:23;4.20;;;3.80;;
35150;SDS011;55720;51.972;4.624;2023-04-30T11:48:45;4.53;;;4.13;;
35150;SDS011;55720;51.972;4.624;2023-04-30T11:53:47;4.25;;;3.92;;
35150;SDS011;55720;51.972;4.624;2023-04-30T11:56:21;5.00;;;4.60;;
35150;SDS011;55720;51.972;4.624;2023-04-30T11:58:49;4.30;;;4.00;;
35150;SDS011;55720;51.972;4.624;2023-04-30T12:01:15;4.97;;;4.57;;
35150;SDS011;55720;51.972;4.624;2023-04-30T12:03:45;4.18;;;3.88;;
35150;SDS011;55720;51.972;4.624;2023-04-30T12:06:21;4.05;;;3.75;;
35150;SDS011;55720;51.972;4.624;2023-04-30T12:08:48;4.68;;;3.58;;
35150;SDS011;55720;51.972;4.624;2023-04-30T12:11:24;5.18;;;4.78;;
35150;SDS011;55720;51.972;4.624;2023-04-30T12:13:51;4.97;;;4.47;;
35150;SDS011;55720;51.972;4.624;2023-04-30T12:16:21;5.28;;;4.70;;
35150;SDS011;55720;51.972;4.624;2023-04-30T12:18:48;4.30;;;3.90;;
35150;SDS011;55720;51.972;4.624;2023-04-30T12:21:15;4.57;;;4.13;;
35150;SDS011;55720;51.972;4.624;2023-04-30T12:23:41;4.78;;;4.38;;
35150;SDS011;55720;51.972;4.624;2023-04-30T12:26:09;4.35;;;4.00;;
35150;SDS011;55720;51.972;4.624;2023-04-30T12:28:34;4.00;;;3.55;;
35150;SDS011;55720;51.972;4.624;2023-04-30T12:31:00;6.05;;;3.38;;
35150;SDS011;55720;51.972;4.624;2023-04-30T12:33:28;3.45;;;3.15;;
35150;SDS011;55720;51.972;4.624;2023-04-30T12:35:55;3.80;;;3.50;;
35150;SDS011;55720;51.972;4.624;2023-04-30T12:38:22;4.07;;;3.63;;
35150;SDS011;55720;51.972;4.624;2023-04-30T12:40:48;3.13;;;2.70;;
35150;SDS011;55720;51.972;4.624;2023-04-30T12:43:14;4.28;;;2.90;;
35150;SDS011;55720;51.972;4.624;2023-04-30T12:45:44;3.60;;;3.20;;
35150;SDS011;55720;51.972;4.624;2023-04-30T12:48:10;4.13;;;2.90;;
35150;SDS011;55720;51.972;4.624;2023-04-30T12:50:37;2.88;;;2.42;;
35150;SDS011;55720;51.972;4.624;2023-04-30T12:53:03;3.63;;;2.40;;
35150;SDS011;55720;51.972;4.624;2023-04-30T12:55:29;2.42;;;2.17;;
35150;SDS011;55720;51.972;4.624;2023-04-30T12:58:05;3.22;;;1.95;;
35150;SDS011;55720;51.972;4.624;2023-04-30T13:03:15;2.67;;;2.17;;
35150;SDS011;55720;51.972;4.624;2023-04-30T13:05:49;2.05;;;1.83;;
35150;SDS011;55720;51.972;4.624;2023-04-30T13:08:16;2.33;;;2.05;;
35150;SDS011;55720;51.972;4.624;2023-04-30T13:10:43;2.05;;;1.95;;
35150;SDS011;55720;51.972;4.624;2023-04-30T13:13:09;1.77;;;1.67;;
35150;SDS011;55720;51.972;4.624;2023-04-30T13:15:35;1.90;;;1.80;;
35150;SDS011;55720;51.972;4.624;2023-04-30T13:18:01;2.45;;;1.65;;
35150;SDS011;55720;51.972;4.624;2023-04-30T13:20:27;2.38;;;1.50;;
35150;SDS011;55720;51.972;4.624;2023-04-30T13:22:53;2.30;;;1.50;;
35150;SDS011;55720;51.972;4.624;2023-04-30T13:25:18;2.83;;;1.63;;
35150;SDS011;55720;51.972;4.624;2023-04-30T13:27:44;2.28;;;2.00;;
35150;SDS011;55720;51.972;4.624;2023-04-30T13:30:09;4.28;;;1.98;;
35150;SDS011;55720;51.972;4.624;2023-04-30T13:32:35;1.85;;;1.60;;
35150;SDS011;55720;51.972;4.624;2023-04-30T13:35:01;1.58;;;1.17;;
35150;SDS011;55720;51.972;4.624;2023-04-30T13:37:27;1.45;;;1.30;;
35150;SDS011;55720;51.972;4.624;2023-04-30T13:39:55;1.50;;;1.40;;
35150;SDS011;55720;51.972;4.624;2023-04-30T13:42:20;1.08;;;1.02;;
35150;SDS011;55720;51.972;4.624;2023-04-30T13:44:46;1.45;;;1.20;;
35150;SDS011;55720;51.972;4.624;2023-04-30T13:47:13;1.33;;;1.23;;
35150;SDS011;55720;51.972;4.624;2023-04-30T13:49:39;1.60;;;1.30;;
35150;SDS011;55720;51.972;4.624;2023-04-30T13:52:04;1.48;;;1.10;;
35150;SDS011;55720;51.972;4.624;2023-04-30T13:54:30;2.05;;;1.20;;
35150;SDS011;55720;51.972;4.624;2023-04-30T13:56:56;1.52;;;1.42;;
35150;SDS011;55720;51.972;4.624;2023-04-30T13:59:23;2.50;;;1.40;;
35150;SDS011;55720;51.972;4.624;2023-04-30T14:01:49;1.70;;;1.60;;
35150;SDS011;55720;51.972;4.624;2023-04-30T14:04:14;1.40;;;1.30;;
35150;SDS011;55720;51.972;4.624;2023-04-30T14:06:40;0.90;;;0.80;;
35150;SDS011;55720;51.972;4.624;2023-04-30T14:09:05;0.68;;;0.68;;
35150;SDS011;55720;51.972;4.624;2023-04-30T14:11:31;1.38;;;0.90;;
35150;SDS011;55720;51.972;4.624;2023-04-30T14:13:56;1.65;;;1.08;;
35150;SDS011;55720;51.972;4.624;2023-04-30T14:16:22;1.77;;;0.93;;
35150;SDS011;55720;51.972;4.624;2023-04-30T14:18:47;1.55;;;0.90;;
35150;SDS011;55720;51.972;4.624;2023-04-30T14:21:13;0.90;;;0.90;;
35150;SDS011;55720;51.972;4.624;2023-04-30T14:23:39;1.83;;;0.70;;
35150;SDS011;55720;51.972;4.624;2023-04-30T14:26:05;1.35;;;0.80;;
35150;SDS011;55720;51.972;4.624;2023-04-30T14:28:31;0.80;;;0.50;;
35150;SDS011;55720;51.972;4.624;2023-04-30T14:30:57;0.73;;;0.60;;
35150;SDS011;55720;51.972;4.624;2023-04-30T14:33:22;0.50;;;0.50;;
35150;SDS011;55720;51.972;4.624;2023-04-30T14:35:47;0.90;;;0.73;;
35150;SDS011;55720;51.972;4.624;2023-04-30T14:38:13;1.20;;;0.60;;
35150;SDS011;55720;51.972;4.624;2023-04-30T14:40:39;3.45;;;0.70;;
35150;SDS011;55720;51.972;4.624;2023-04-30T14:43:05;0.95;;;0.77;;
35150;SDS011;55720;51.972;4.624;2023-04-30T14:45:33;1.27;;;1.17;;
35150;SDS011;55720;51.972;4.624;2023-04-30T14:47:59;1.00;;;0.90;;
35150;SDS011;55720;51.972;4.624;2023-04-30T14:50:25;0.80;;;0.75;;
35150;SDS011;55720;51.972;4.624;2023-04-30T14:52:50;0.82;;;0.80;;
35150;SDS011;55720;51.972;4.624;2023-04-30T14:55:15;1.33;;;1.10;;
35150;SDS011;55720;51.972;4.624;2023-04-30T14:57:41;0.90;;;0.82;;
35150;SDS011;55720;51.972;4.624;2023-04-30T15:00:06;1.23;;;0.80;;
35150;SDS011;55720;51.972;4.624;2023-04-30T15:02:33;1.98;;;0.93;;
35150;SDS011;55720;51.972;4.624;2023-04-30T15:04:59;0.80;;;0.80;;
35150;SDS011;55720;51.972;4.624;2023-04-30T15:07:24;1.17;;;0.90;;
35150;SDS011;55720;51.972;4.624;2023-04-30T15:09:51;0.73;;;0.73;;